Time;durP1;ratioP1;P1;durP2;ratioP2;P2;SDS_P1;SDS_P2;PMS_P1;PMS_P2;Temp;Humidity;BMP_temperature;BMP_pressure;BME280_temperature;BME280_humidity;BME280_pressure;Samples;Min_cycle;Max_cycle;Signal;HPM_P1;HPM_P2
2023/04/07 00:02:44;;;;;;;5.00;2.78;;;;;;;5.90;100.00;99967.75;10331647;28;20034;-72
2023/04/07 00:07:45;;;;;;;7.57;3.28;;;;;;;5.73;100.00;99964.06;10331888;28;20069;-72
2023/04/07 00:12:45;;;;;;;5.30;2.55;;;;;;;4.96;100.00;99879.09;10331696;28;20045;-72
2023/04/07 00:17:46;;;;;;;4.88;2.58;;;;;;;5.55;100.00;99979.81;10334849;28;20437;-72
2023/04/07 00:22:47;;;;;;;8.25;3.22;;;;;;;5.54;100.00;99957.09;10339666;28;20041;-72
2023/04/07 00:27:48;;;;;;;7.82;3.20;;;;;;;5.76;100.00;99965.59;10338189;28;20052;-72
2023/04/07 00:32:50;;;;;;;8.38;3.15;;;;;;;4.96;100.00;99804.56;10338235;28;20482;-72
2023/04/07 00:37:51;;;;;;;8.02;3.10;;;;;;;6.06;100.00;99975.84;10338514;28;20046;-72
2023/04/07 00:42:52;;;;;;;12.88;3.20;;;;;;;5.62;100.00;99886.03;10338337;28;20501;-72
2023/04/07 00:47:52;;;;;;;6.75;3.25;;;;;;;5.67;100.00;99896.13;10337573;28;20046;-72
2023/04/07 00:52:55;;;;;;;9.88;3.88;;;;;;;5.24;100.00;99826.50;10338445;28;20054;-72
2023/04/07 00:57:56;;;;;;;11.43;4.65;;;;;;;6.27;100.00;99974.75;10337790;28;20056;-72
2023/04/07 01:03:05;;;;;;;15.13;4.28;;;;;;;6.28;100.00;99956.16;10337656;28;20038;-72
2023/04/07 01:08:23;;;;;;;12.85;4.63;;;;;;;6.40;100.00;99962.88;10337435;28;20125;-72
2023/04/07 01:13:32;;;;;;;10.38;4.55;;;;;;;5.94;100.00;99874.22;10296666;28;20525;-72
2023/04/07 01:18:35;;;;;;;11.38;4.78;;;;;;;6.44;100.00;99957.28;10297327;28;20406;-72
2023/04/07 01:24:12;;;;;;;12.38;4.88;;;;;;;6.63;100.00;99965.03;10296160;28;20043;-72
2023/04/07 01:29:36;;;;;;;15.32;4.75;;;;;;;6.59;100.00;99964.53;10342480;28;20119;-72
2023/04/07 01:34:37;;;;;;;9.40;4.22;;;;;;;6.43;100.00;99959.06;10350071;28;20062;-72
2023/04/07 01:39:39;;;;;;;11.25;5.10;;;;;;;6.32;100.00;99965.44;10373692;28;20401;-72
2023/04/07 01:44:40;;;;;;;14.65;4.43;;;;;;;6.25;100.00;99972.28;10374000;28;20065;-72
2023/04/07 01:49:44;;;;;;;14.40;5.93;;;;;;;6.21;100.00;99970.91;10336480;28;20512;-72
2023/04/07 01:54:45;;;;;;;11.13;4.80;;;;;;;6.14;100.00;99978.59;10335460;28;20049;-72
2023/04/07 01:59:46;;;;;;;10.52;5.00;;;;;;;5.74;100.00;99910.38;10345491;28;20050;-72
2023/04/07 02:05:02;;;;;;;15.27;4.80;;;;;;;6.25;100.00;99974.94;10334570;28;20426;-72
2023/04/07 02:10:05;;;;;;;15.32;5.45;;;;;;;6.21;100.00;99967.44;10335095;28;20401;-72
2023/04/07 02:15:08;;;;;;;13.73;5.10;;;;;;;6.30;100.00;99963.91;10335432;28;20490;-73
2023/04/07 02:20:11;;;;;;;9.77;4.43;;;;;;;6.33;100.00;99969.72;10334083;28;20045;-72
2023/04/07 02:25:26;;;;;;;25.80;5.53;;;;;;;5.83;100.00;99862.03;10333644;28;20465;-72
2023/04/07 02:30:27;;;;;;;13.25;4.75;;;;;;;6.48;100.00;99971.84;10334071;28;20073;-72
2023/04/07 02:35:28;;;;;;;13.43;4.90;;;;;;;6.42;100.00;99975.06;10333463;28;20072;-72
2023/04/07 02:40:29;;;;;;;18.42;5.15;;;;;;;6.34;100.00;99975.81;10332790;28;20093;-73
2023/04/07 02:45:30;;;;;;;8.63;4.85;;;;;;;6.39;100.00;99970.94;10343969;28;20045;-72
2023/04/07 02:50:31;;;;;;;29.38;8.13;;;;;;;6.43;100.00;99982.00;10340503;28;20140;-72
2023/04/07 02:55:31;;;;;;;14.48;5.60;;;;;;;6.48;100.00;99982.38;10350674;28;20046;-73
2023/04/07 03:00:33;;;;;;;14.45;5.72;;;;;;;6.56;100.00;99985.13;10324450;28;20164;-73
2023/04/07 03:05:34;;;;;;;9.82;4.45;;;;;;;6.51;100.00;99961.81;10329378;28;20132;-73
2023/04/07 03:10:35;;;;;;;12.43;4.88;;;;;;;6.90;100.00;99976.47;10314320;28;20133;-72
2023/04/07 03:15:35;;;;;;;21.50;5.25;;;;;;;6.94;100.00;99936.44;10292387;28;20129;-73
2023/04/07 03:20:36;;;;;;;11.55;4.72;;;;;;;7.12;100.00;99915.25;10291644;28;20066;-72
2023/04/07 03:25:37;;;;;;;18.60;6.03;;;;;;;7.83;100.00;99979.34;10291825;28;20043;-73
2023/04/07 03:30:38;;;;;;;15.00;5.05;;;;;;;8.20;99.63;99971.06;10291497;28;20510;-73
2023/04/07 03:35:39;;;;;;;17.15;4.93;;;;;;;8.76;98.33;99993.31;10291263;28;20038;-73
2023/04/07 03:40:40;;;;;;;14.70;4.50;;;;;;;8.81;97.76;99976.94;10291356;28;20093;-74
2023/04/07 03:45:41;;;;;;;12.38;4.78;;;;;;;9.45;97.22;99991.09;10290585;28;20469;-74
2023/04/07 03:50:42;;;;;;;12.90;5.05;;;;;;;9.23;96.10;99915.78;10334782;28;20528;-73
2023/04/07 03:55:43;;;;;;;8.45;4.13;;;;;;;9.75;95.58;100009.91;10380910;28;20060;-74
2023/04/07 04:00:44;;;;;;;9.00;4.07;;;;;;;9.64;94.76;100013.78;10366449;28;20073;-75
2023/04/07 04:05:45;;;;;;;22.35;4.20;;;;;;;8.81;94.72;99919.50;10379241;28;20514;-74
2023/04/07 04:10:46;;;;;;;12.32;4.63;;;;;;;9.25;95.04;100019.81;10379823;28;20069;-72
2023/04/07 04:15:47;;;;;;;12.18;4.13;;;;;;;9.26;94.99;100018.00;10339089;28;20077;-72
2023/04/07 04:20:48;;;;;;;14.63;5.05;;;;;;;9.31;95.00;100023.63;10339277;28;20037;-73
2023/04/07 04:25:49;;;;;;;13.88;5.13;;;;;;;9.20;94.82;99970.94;10338419;28;20053;-74
2023/04/07 04:30:50;;;;;;;21.50;4.65;;;;;;;9.12;94.25;99937.31;10350239;28;20045;-74
2023/04/07 04:35:50;;;;;;;20.80;4.35;;;;;;;9.49;94.48;99994.25;10351947;28;20508;-77
2023/04/07 04:40:51;;;;;;;12.23;4.40;;;;;;;9.48;94.03;99998.75;10338459;28;20039;-73
2023/04/07 04:45:52;;;;;;;11.18;4.68;;;;;;;9.47;93.81;100028.06;10337557;28;20124;-71
2023/04/07 04:50:53;;;;;;;10.52;4.43;;;;;;;9.41;94.12;100028.75;10346180;28;20081;-72
2023/04/07 04:55:54;;;;;;;15.32;4.13;;;;;;;9.49;94.19;100026.09;10377439;28;20093;-73
2023/04/07 05:07:17;;;;;;;17.13;4.83;;;;;;;9.56;93.19;100001.34;10338426;28;20046;-73
2023/04/07 05:12:18;;;;;;;14.38;4.47;;;;;;;9.20;93.41;99952.41;10337312;28;20309;-72
2023/04/07 05:17:19;;;;;;;15.68;4.70;;;;;;;9.77;93.59;100032.63;10337025;28;20042;-73
2023/04/07 05:22:20;;;;;;;10.88;4.82;;;;;;;9.58;93.58;99951.63;10336782;28;20042;-72
2023/04/07 05:27:21;;;;;;;14.18;4.60;;;;;;;10.10;92.30;99962.69;10337371;28;20140;-73
2023/04/07 05:32:21;;;;;;;12.15;4.47;;;;;;;11.23;91.37;100026.66;10335828;28;20096;-73
2023/04/07 05:37:22;;;;;;;12.90;5.00;;;;;;;11.74;90.04;100002.88;10336315;28;20057;-72
2023/04/07 05:42:23;;;;;;;14.98;5.07;;;;;;;12.34;89.46;100008.97;10336319;28;20039;-73
2023/04/07 05:47:24;;;;;;;13.43;4.63;;;;;;;12.64;87.77;100031.03;10335220;28;20116;-72
2023/04/07 05:52:24;;;;;;;13.65;5.13;;;;;;;12.72;87.40;100035.41;10335761;28;20073;-73
2023/04/07 05:57:27;;;;;;;15.50;4.75;;;;;;;12.55;87.35;100022.31;10335660;28;20069;-72
2023/04/07 06:02:27;;;;;;;14.88;5.07;;;;;;;12.82;86.65;100043.91;10335496;28;20132;-72
2023/04/07 06:07:28;;;;;;;12.27;4.32;;;;;;;13.14;86.34;100026.56;10335353;28;20120;-72
2023/04/07 06:12:29;;;;;;;19.10;4.63;;;;;;;12.95;85.18;99936.56;10334311;28;20053;-71
2023/04/07 06:17:30;;;;;;;19.83;4.50;;;;;;;14.05;84.19;100042.59;10334070;28;20042;-72
2023/04/07 06:22:31;;;;;;;15.43;4.88;;;;;;;14.47;83.28;100038.03;10334016;28;20513;-71
2023/04/07 06:27:32;;;;;;;14.40;4.82;;;;;;;14.48;82.25;100031.69;10334666;28;20039;-73
2023/04/07 06:32:32;;;;;;;12.30;4.60;;;;;;;14.41;81.72;100008.63;10333950;28;20564;-71
2023/04/07 06:37:33;;;;;;;18.75;4.60;;;;;;;14.59;80.58;100024.94;10334100;28;20488;-72
2023/04/07 06:42:34;;;;;;;15.32;4.80;;;;;;;14.72;80.31;100034.88;10333827;28;20141;-73
2023/04/07 06:47:35;;;;;;;15.82;4.70;;;;;;;14.39;80.02;99960.75;10334486;28;20046;-73
2023/04/07 06:52:36;;;;;;;12.63;4.07;;;;;;;15.11;79.13;100006.53;10332688;28;20046;-72
2023/04/07 06:57:36;;;;;;;14.55;3.80;;;;;;;16.13;76.60;100039.94;10332857;28;20064;-72
2023/04/07 07:02:37;;;;;;;13.65;3.22;;;;;;;16.26;71.55;100025.66;10332436;28;20081;-73
2023/04/07 07:07:38;;;;;;;15.77;3.50;;;;;;;16.23;69.93;100037.63;10333094;28;20042;-73
2023/04/07 07:12:40;;;;;;;27.65;4.32;;;;;;;16.22;69.08;100029.81;10332251;28;20078;-73
2023/04/07 07:17:41;;;;;;;18.73;3.70;;;;;;;15.69;68.65;99964.66;10333113;28;20502;-73
2023/04/07 07:22:42;;;;;;;10.43;2.83;;;;;;;15.86;68.27;100010.56;10331957;28;20049;-72
2023/04/07 07:27:43;;;;;;;17.75;3.47;;;;;;;15.89;68.78;99990.56;10331547;28;20038;-73
2023/04/07 07:32:43;;;;;;;15.20;3.35;;;;;;;16.30;68.83;100024.19;10331617;28;20053;-72
2023/04/07 07:37:44;;;;;;;16.83;3.78;;;;;;;16.22;68.36;100003.84;10331959;28;20070;-73
2023/04/07 07:42:46;;;;;;;25.60;3.38;;;;;;;16.62;68.51;100028.56;10333068;28;20047;-73
2023/04/07 07:47:46;;;;;;;24.13;3.53;;;;;;;16.78;67.47;100024.59;10331882;28;20073;-73
2023/04/07 07:52:47;;;;;;;20.60;3.67;;;;;;;16.44;66.93;99959.56;10331515;28;20046;-71
2023/04/07 07:57:48;;;;;;;14.93;4.00;;;;;;;16.34;67.09;99953.88;10331954;28;20089;-73
2023/04/07 08:02:49;;;;;;;17.02;3.75;;;;;;;16.39;66.87;99964.78;10331117;28;20050;-72
2023/04/07 08:07:51;;;;;;;18.58;3.67;;;;;;;16.77;66.61;100025.63;10331709;28;20039;-74
2023/04/07 08:12:52;;;;;;;20.58;3.92;;;;;;;16.69;67.16;99999.00;10331611;28;20052;-73
2023/04/07 08:17:52;;;;;;;11.82;3.45;;;;;;;17.08;66.15;100029.31;10330719;28;20520;-72
2023/04/07 08:22:53;;;;;;;15.93;3.58;;;;;;;16.86;65.47;99967.16;10330588;28;20042;-72
2023/04/07 08:27:54;;;;;;;16.92;3.63;;;;;;;17.41;65.21;100017.47;10330874;28;20038;-73
2023/04/07 08:32:55;;;;;;;13.40;4.15;;;;;;;17.73;64.19;100021.72;10331149;28;20387;-73
2023/04/07 08:37:56;;;;;;;16.35;3.38;;;;;;;17.99;63.86;100009.06;10333094;28;20050;-73
2023/04/07 08:42:59;;;;;;;16.90;3.15;;;;;;;18.18;62.34;100005.31;10338458;28;20046;-73
2023/04/07 08:48:06;;;;;;;20.05;3.38;;;;;;;18.07;61.22;99955.00;10337180;28;20439;-73
2023/04/07 08:53:10;;;;;;;21.00;5.18;;;;;;;18.81;61.78;99989.78;10337425;28;20054;-73
2023/04/07 08:58:13;;;;;;;19.95;3.95;;;;;;;18.54;60.46;99994.69;10338385;28;20058;-72
2023/04/07 09:03:16;;;;;;;17.98;4.05;;;;;;;18.47;60.89;99992.94;10337464;28;20387;-73
2023/04/07 09:08:17;;;;;;;19.53;3.60;;;;;;;17.99;59.88;99923.06;10337576;28;20073;-72
2023/04/07 09:13:18;;;;;;;24.92;4.95;;;;;;;17.82;60.72;99904.03;10337290;28;20336;-73
2023/04/07 09:18:19;;;;;;;13.20;3.53;;;;;;;18.36;60.35;99957.91;10336750;28;20066;-73
2023/04/07 09:23:34;;;;;;;12.30;3.53;;;;;;;19.09;58.27;99979.19;10336710;28;20125;-73
2023/04/07 09:28:40;;;;;;;14.63;3.53;;;;;;;19.21;57.42;99970.31;10337168;28;20038;-73
2023/04/07 09:33:41;;;;;;;14.95;3.13;;;;;;;19.72;57.23;99949.91;10336971;28;20049;-73
2023/04/07 09:38:44;;;;;;;19.55;3.53;;;;;;;19.94;54.75;99902.38;10335761;28;20042;-73
2023/04/07 09:43:45;;;;;;;18.90;3.35;;;;;;;20.46;54.01;99972.41;10336205;28;20052;-73
2023/04/07 09:48:47;;;;;;;17.92;3.63;;;;;;;20.60;53.44;99981.03;10334843;28;20554;-73
2023/04/07 09:53:51;;;;;;;14.43;3.15;;;;;;;20.02;53.34;99918.16;10336074;28;20050;-72
2023/04/07 09:58:52;;;;;;;14.82;3.38;;;;;;;20.59;54.61;99975.88;10335247;28;20062;-71
2023/04/07 10:03:55;;;;;;;13.25;3.47;;;;;;;20.09;54.77;99923.41;10334575;28;20160;-71
2023/04/07 10:08:55;;;;;;;20.50;3.78;;;;;;;19.98;55.45;99973.63;10310205;28;20410;-72
2023/04/07 10:13:56;;;;;;;11.75;4.53;;;;;;;19.46;55.33;99924.25;10294405;28;20129;-73
2023/04/07 10:18:57;;;;;;;23.20;4.28;;;;;;;19.77;54.89;99971.56;10294827;28;20047;-73
2023/04/07 10:24:19;;;;;;;19.83;3.80;;;;;;;19.88;52.50;99967.22;10294498;28;20058;-73
2023/04/07 10:29:21;;;;;;;16.33;3.53;;;;;;;20.09;53.04;99934.19;10294100;28;20132;-73
2023/04/07 10:34:49;;;;;;;20.50;3.38;;;;;;;20.63;49.00;99969.75;10294039;28;20047;-71
2023/04/07 10:40:26;;;;;;;30.30;5.10;;;;;;;20.93;50.61;99965.91;10293282;28;20047;-72
2023/04/07 10:45:47;;;;;;;19.80;3.15;;;;;;;21.40;47.08;99966.41;10290705;28;20046;-74
2023/04/07 10:51:13;;;;;;;12.25;2.78;;;;;;;21.78;45.14;99961.25;10292886;28;20042;-74
2023/04/07 10:56:14;;;;;;;16.20;2.80;;;;;;;21.27;45.52;99904.59;10292822;28;20073;-71
2023/04/07 11:01:16;;;;;;;14.25;3.03;;;;;;;21.70;43.65;99961.69;10292849;28;20043;-72
2023/04/07 11:06:17;;;;;;;18.40;3.70;;;;;;;21.54;41.84;99888.50;10293235;28;20050;-71
2023/04/07 11:11:38;;;;;;;18.45;3.70;;;;;;;21.33;40.32;99795.53;10292115;28;20121;-71
2023/04/07 11:16:41;;;;;;;15.95;3.90;;;;;;;21.60;40.73;99905.59;10291935;28;20038;-71
2023/04/07 11:21:42;;;;;;;14.05;2.88;;;;;;;20.96;42.00;99882.53;10306956;28;20045;-72
2023/04/07 11:26:44;;;;;;;23.98;4.45;;;;;;;20.71;41.84;99893.78;10292326;28;20045;-73
2023/04/07 11:31:47;;;;;;;14.73;3.30;;;;;;;21.06;39.77;99949.41;10291835;28;20092;-71
2023/04/07 11:36:48;;;;;;;14.97;3.60;;;;;;;21.06;41.25;99879.19;10291553;28;20039;-73
2023/04/07 11:41:49;;;;;;;21.15;3.92;;;;;;;21.54;40.71;99960.63;10291297;28;20046;-74
2023/04/07 11:46:54;;;;;;;18.65;3.28;;;;;;;21.30;40.92;99968.94;10291243;28;20868;-73
2023/04/07 11:52:08;;;;;;;14.48;3.38;;;;;;;21.43;40.55;99965.91;10291181;28;20074;-73
2023/04/07 11:57:11;;;;;;;22.25;3.88;;;;;;;21.62;41.84;99946.69;10291057;28;20063;-73
2023/04/07 12:02:30;;;;;;;16.37;3.57;;;;;;;22.01;40.32;99969.06;10291276;28;20046;-73
2023/04/07 12:07:32;;;;;;;16.55;3.10;;;;;;;21.63;41.72;99941.06;10291666;28;20047;-73
2023/04/07 12:12:32;;;;;;;9.75;2.92;;;;;;;21.77;41.88;99957.69;10292118;28;20050;-74
2023/04/07 12:17:33;;;;;;;19.60;2.95;;;;;;;21.73;41.70;99956.56;10347346;28;20398;-78
2023/04/07 12:22:34;;;;;;;20.17;3.40;;;;;;;21.84;41.53;99969.16;10350050;28;20048;-77
2023/04/07 12:27:35;;;;;;;27.50;3.05;;;;;;;22.05;40.92;99964.81;10367429;28;20047;-77
2023/04/07 12:32:36;;;;;;;22.13;3.53;;;;;;;21.95;40.09;99923.31;10348269;28;20046;-78
2023/04/07 12:37:37;;;;;;;13.77;3.10;;;;;;;22.24;40.70;99965.31;10361448;28;20038;-78
2023/04/07 12:42:38;;;;;;;14.13;3.13;;;;;;;22.09;40.34;99960.53;10366853;28;20046;-77
2023/04/07 12:47:39;;;;;;;15.95;3.90;;;;;;;21.73;39.94;99967.38;10366583;28;20129;-76
2023/04/07 12:52:40;;;;;;;18.23;3.55;;;;;;;21.42;39.65;99963.47;10362729;28;20405;-78
2023/04/07 12:57:40;;;;;;;16.10;3.13;;;;;;;20.93;40.30;99968.63;10347904;28;20060;-78
2023/04/07 13:02:42;;;;;;;11.60;3.10;;;;;;;20.04;41.00;99913.38;10361778;28;20124;-76
2023/04/07 13:07:43;;;;;;;15.38;3.65;;;;;;;19.55;41.02;99867.06;10350873;28;20052;-74
2023/04/07 13:12:44;;;;;;;10.98;2.70;;;;;;;19.52;41.47;99888.28;10364920;28;20081;-77
2023/04/07 13:17:46;;;;;;;26.08;3.33;;;;;;;19.71;41.84;99937.47;10377201;28;20061;-77
2023/04/07 13:22:47;;;;;;;12.57;3.22;;;;;;;19.52;42.21;99944.88;10347249;28;20125;-77
2023/04/07 13:27:48;;;;;;;17.38;3.20;;;;;;;19.46;42.45;99932.34;10336883;28;20042;-77
2023/04/07 13:32:48;;;;;;;33.83;5.55;;;;;;;19.67;43.39;99966.78;10340208;28;20085;-76
2023/04/07 13:37:50;;;;;;;30.13;12.70;;;;;;;19.50;43.66;99950.47;10353526;28;20140;-77
2023/04/07 13:42:50;;;;;;;19.30;5.40;;;;;;;19.06;43.79;99895.38;10349355;28;20084;-77
2023/04/07 13:47:51;;;;;;;12.90;4.35;;;;;;;19.35;43.84;99936.66;10365263;28;20076;-77
2023/04/07 13:52:52;;;;;;;12.20;3.88;;;;;;;19.54;44.24;99957.03;10334084;28;20054;-76
2023/04/07 13:57:53;;;;;;;15.48;3.72;;;;;;;19.59;43.90;99956.31;10336821;28;20076;-78
2023/04/07 14:02:54;;;;;;;23.67;4.38;;;;;;;19.42;44.05;99931.19;10335508;28;20046;-77
2023/04/07 14:07:55;;;;;;;24.38;3.90;;;;;;;18.96;44.23;99866.34;10349458;28;20042;-77
2023/04/07 14:12:56;;;;;;;17.58;4.32;;;;;;;19.26;44.51;99962.31;10374445;28;20050;-77
2023/04/07 14:17:57;;;;;;;8.77;3.20;;;;;;;18.40;47.08;99905.34;10375289;28;20405;-77
2023/04/07 14:22:58;;;;;;;13.18;3.10;;;;;;;18.56;49.38;99985.34;10375298;28;20053;-77
2023/04/07 14:27:59;;;;;;;21.15;6.03;;;;;;;18.15;50.77;99976.19;10373674;28;20064;-75
2023/04/07 14:33:00;;;;;;;10.18;3.08;;;;;;;18.03;52.12;99994.13;10373620;28;20057;-75
2023/04/07 14:38:01;;;;;;;16.00;3.78;;;;;;;17.62;53.51;99979.50;10372202;28;20045;-75
2023/04/07 14:43:03;;;;;;;13.07;3.65;;;;;;;17.69;54.24;100003.59;10374144;28;20054;-76
2023/04/07 14:48:04;;;;;;;22.75;9.02;;;;;;;17.39;55.20;99976.63;10365051;28;20064;-75
2023/04/07 14:53:05;;;;;;;31.20;14.30;;;;;;;17.49;56.03;100003.78;10372437;28;20050;-75
2023/04/07 14:58:07;;;;;;;23.15;9.23;;;;;;;17.24;56.71;99988.53;10374444;28;20081;-75
2023/04/07 15:03:07;;;;;;;11.27;5.75;;;;;;;17.13;58.02;99993.78;10340893;28;20577;-76
2023/04/07 15:08:08;;;;;;;6.93;4.03;;;;;;;16.82;59.16;99998.16;10332548;28;20042;-75
2023/04/07 15:13:09;;;;;;;13.68;4.25;;;;;;;16.67;59.72;100007.28;10333255;28;21154;-74
2023/04/07 15:18:10;;;;;;;9.00;3.65;;;;;;;16.50;60.24;100008.84;10332165;28;20070;-76
2023/04/07 15:23:13;;;;;;;11.80;4.18;;;;;;;16.13;60.75;99991.72;10332487;28;20213;-75
2023/04/07 15:28:14;;;;;;;12.90;4.85;;;;;;;16.11;61.08;100017.88;10331791;28;20042;-74
2023/04/07 15:33:14;;;;;;;14.57;6.43;;;;;;;15.88;62.07;100018.38;10331880;28;20409;-77
2023/04/07 15:38:15;;;;;;;9.77;4.40;;;;;;;15.35;62.79;99979.13;10348674;28;20066;-75
2023/04/07 15:43:16;;;;;;;12.43;4.53;;;;;;;15.36;63.97;100007.53;10366503;28;20042;-76
2023/04/07 15:48:17;;;;;;;10.23;4.53;;;;;;;15.28;65.15;100023.78;10335132;28;20413;-76
2023/04/07 15:53:18;;;;;;;11.70;4.53;;;;;;;15.07;65.36;100014.94;10333944;28;20061;-74
2023/04/07 15:58:19;;;;;;;10.57;4.20;;;;;;;14.80;65.68;99984.69;10333337;28;20493;-75
2023/04/07 16:03:20;;;;;;;15.13;4.88;;;;;;;14.89;66.30;100025.41;10372498;28;20076;-75
2023/04/07 16:08:20;;;;;;;11.38;3.97;;;;;;;14.71;66.87;100020.66;10370024;28;20497;-72
2023/04/07 16:13:21;;;;;;;11.25;4.40;;;;;;;14.22;67.72;99975.50;10369639;28;20046;-74
2023/04/07 16:18:22;;;;;;;8.10;3.97;;;;;;;14.19;67.67;100002.59;10345150;28;20080;-74
2023/04/07 16:23:23;;;;;;;11.45;4.15;;;;;;;14.47;67.45;100075.47;10340949;28;20070;-72
2023/04/07 16:28:24;;;;;;;17.35;7.80;;;;;;;14.37;68.21;100085.72;10335736;28;20035;-72
2023/04/07 16:33:26;;;;;;;32.15;15.07;;;;;;;14.01;68.77;100065.41;10312880;28;20057;-76
2023/04/07 16:38:28;;;;;;;13.40;7.63;;;;;;;13.96;69.40;100099.88;10327178;28;20039;-72
2023/04/07 16:43:28;;;;;;;9.77;6.32;;;;;;;13.37;70.24;100041.53;10306190;28;20125;-73
2023/04/07 16:48:29;;;;;;;10.38;5.97;;;;;;;13.41;70.51;100083.69;10305643;28;20567;-77
2023/04/07 16:53:30;;;;;;;12.60;6.15;;;;;;;12.92;71.36;100030.25;10324721;28;20562;-77
2023/04/07 16:58:31;;;;;;;12.20;5.07;;;;;;;12.46;70.97;99977.34;10320396;28;20473;-74
2023/04/07 17:03:32;;;;;;;14.80;4.28;;;;;;;13.05;71.83;100097.06;10324531;28;20141;-73
2023/04/07 17:08:34;;;;;;;9.55;3.60;;;;;;;13.08;71.33;100123.34;10325814;28;20038;-75
2023/04/07 17:13:35;;;;;;;8.05;3.70;;;;;;;13.10;70.82;100134.66;10313497;28;20097;-75
2023/04/07 17:18:36;;;;;;;26.17;12.82;;;;;;;13.06;71.24;100128.03;10341492;28;20129;-74
2023/04/07 17:23:37;;;;;;;14.45;4.63;;;;;;;12.74;71.42;100098.19;10338794;28;20048;-74
2023/04/07 17:28:37;;;;;;;12.93;5.25;;;;;;;11.81;71.35;99979.00;10331205;28;20066;-74
2023/04/07 17:33:38;;;;;;;14.73;7.22;;;;;;;12.27;71.41;100072.81;10344624;28;20133;-74
2023/04/07 17:38:39;;;;;;;10.98;5.25;;;;;;;12.60;71.30;100147.00;10338925;28;20041;-74
2023/04/07 17:43:40;;;;;;;11.50;3.65;;;;;;;12.15;71.35;100090.28;10338432;28;20034;-75
2023/04/07 17:48:43;;;;;;;16.25;3.13;;;;;;;11.71;71.85;100051.13;10341080;28;20406;-75
2023/04/07 17:53:44;;;;;;;7.63;3.13;;;;;;;11.73;71.69;100059.75;10331234;28;20046;-75
2023/04/07 17:58:47;;;;;;;8.40;2.92;;;;;;;11.63;73.13;100048.53;10334378;28;20050;-74
2023/04/07 18:03:48;;;;;;;20.23;4.40;;;;;;;11.62;72.61;100062.88;10337756;28;20038;-75
2023/04/07 18:08:49;;;;;;;10.70;3.58;;;;;;;11.72;74.29;100099.84;10354018;28;20046;-74
2023/04/07 18:13:50;;;;;;;12.50;3.33;;;;;;;11.45;75.00;100078.16;10337665;28;20038;-76
2023/04/07 18:18:51;;;;;;;9.68;4.00;;;;;;;11.34;75.00;100071.44;10320964;28;20078;-74
2023/04/07 18:23:52;;;;;;;12.70;7.32;;;;;;;11.33;75.37;100077.75;10335521;28;20568;-74
2023/04/07 18:28:53;;;;;;;14.50;7.60;;;;;;;11.64;76.24;100133.53;10341092;28;20053;-74
2023/04/07 18:33:53;;;;;;;14.50;6.25;;;;;;;11.42;76.75;100142.34;10310551;28;20038;-74
2023/04/07 18:38:54;;;;;;;35.00;7.88;;;;;;;10.89;77.96;100110.31;10308586;28;20035;-74
2023/04/07 18:43:55;;;;;;;21.77;6.30;;;;;;;10.82;79.04;100124.47;10320190;28;20521;-74
2023/04/07 18:48:57;;;;;;;17.25;8.77;;;;;;;10.80;79.10;100124.66;10319678;28;20045;-74
2023/04/07 18:53:57;;;;;;;20.65;7.88;;;;;;;10.69;79.25;100131.19;10311913;28;20470;-74
2023/04/07 18:58:58;;;;;;;21.80;7.75;;;;;;;10.44;79.63;100111.91;10347559;28;20081;-74
2023/04/07 19:04:00;;;;;;;16.30;7.60;;;;;;;10.43;79.60;100123.50;10355674;28;20046;-74
2023/04/07 19:09:02;;;;;;;24.38;7.20;;;;;;;10.18;80.28;100116.59;10373104;28;20473;-74
2023/04/07 19:14:04;;;;;;;19.63;7.68;;;;;;;10.04;81.39;100120.78;10372833;28;20564;-75
2023/04/07 19:19:05;;;;;;;31.38;11.88;;;;;;;9.65;81.89;100065.00;10373210;28;20092;-74
2023/04/07 19:24:06;;;;;;;32.17;11.75;;;;;;;10.11;82.52;100134.19;10360716;28;20046;-74
2023/04/07 19:29:09;;;;;;;27.67;9.32;;;;;;;9.87;83.00;100127.97;10340365;28;20137;-74
2023/04/07 19:34:10;;;;;;;22.85;10.55;;;;;;;8.85;83.87;99986.19;10361781;28;20042;-74
2023/04/07 19:39:11;;;;;;;22.55;10.60;;;;;;;9.35;83.67;100067.34;10372773;28;20424;-74
2023/04/07 19:44:12;;;;;;;41.53;22.45;;;;;;;8.80;83.60;99956.75;10373015;28;20062;-74
2023/04/07 19:49:12;;;;;;;24.00;8.75;;;;;;;9.66;84.40;100098.47;10332432;28;20525;-75
2023/04/07 19:54:13;;;;;;;75.38;43.92;;;;;;;9.51;84.97;100087.72;10331237;28;20043;-74
2023/04/07 19:59:14;;;;;;;29.95;13.25;;;;;;;9.53;85.71;100096.34;10346254;28;20097;-75
2023/04/07 20:04:15;;;;;;;15.00;8.23;;;;;;;9.28;86.42;100111.44;10331088;28;20050;-73
2023/04/07 20:09:16;;;;;;;25.40;7.78;;;;;;;8.66;87.09;100045.63;10329073;28;20034;-73
2023/04/07 20:14:17;;;;;;;18.10;9.15;;;;;;;9.13;87.57;100138.56;10291214;28;20054;-73
2023/04/07 20:19:18;;;;;;;14.95;6.63;;;;;;;9.13;88.11;100138.56;10290500;28;20043;-73
2023/04/07 20:24:18;;;;;;;21.63;7.63;;;;;;;8.71;88.09;100082.22;10293107;28;20074;-73
2023/04/07 20:29:19;;;;;;;14.52;7.10;;;;;;;8.57;88.31;100065.94;10330871;28;20073;-73
2023/04/07 20:34:20;;;;;;;19.85;10.43;;;;;;;8.30;88.86;100023.81;10333097;28;20046;-73
2023/04/07 20:39:21;;;;;;;16.83;8.93;;;;;;;8.22;88.79;100021.97;10338412;28;20073;-73
2023/04/07 20:44:22;;;;;;;30.30;8.43;;;;;;;8.84;88.82;100122.28;10337927;28;20093;-73
2023/04/07 20:49:23;;;;;;;28.45;8.15;;;;;;;8.35;89.12;100048.00;10338679;28;20038;-73
2023/04/07 20:54:24;;;;;;;18.10;7.47;;;;;;;7.92;90.09;100021.53;10338087;28;20053;-73
2023/04/07 20:59:25;;;;;;;15.70;7.10;;;;;;;8.50;91.28;100138.25;10338304;28;20058;-73
2023/04/07 21:04:26;;;;;;;11.43;6.80;;;;;;;7.78;91.63;100038.00;10337451;28;20046;-73
2023/04/07 21:09:27;;;;;;;10.88;5.78;;;;;;;8.29;91.88;100128.03;10337543;28;20042;-73
2023/04/07 21:14:28;;;;;;;19.98;5.68;;;;;;;8.24;92.28;100147.84;10336778;28;20066;-73
2023/04/07 21:19:28;;;;;;;8.90;4.97;;;;;;;8.05;92.35;100150.72;10336746;28;20395;-73
2023/04/07 21:24:30;;;;;;;17.10;5.30;;;;;;;7.93;93.11;100159.91;10337009;28;20042;-73
2023/04/07 21:29:31;;;;;;;20.70;5.65;;;;;;;7.46;93.48;100083.56;10337767;28;20073;-72
2023/04/07 21:34:32;;;;;;;11.77;5.40;;;;;;;7.86;93.80;100149.09;10336561;28;20038;-73
2023/04/07 21:39:34;;;;;;;14.00;6.88;;;;;;;7.76;94.13;100124.59;10335811;28;20125;-72
2023/04/07 21:44:34;;;;;;;11.90;6.35;;;;;;;7.87;93.49;100123.50;10335421;28;20133;-73
2023/04/07 21:49:37;;;;;;;8.73;5.78;;;;;;;7.97;93.48;100151.50;10336082;28;20129;-73
2023/04/07 21:54:38;;;;;;;9.70;5.43;;;;;;;7.68;92.10;100135.94;10334861;28;20042;-72
2023/04/07 21:59:39;;;;;;;11.27;5.90;;;;;;;7.60;92.50;100122.66;10335096;28;20058;-72
2023/04/07 22:04:40;;;;;;;15.90;7.55;;;;;;;7.20;92.90;100025.41;10336086;28;20048;-72
2023/04/07 22:09:40;;;;;;;18.10;8.40;;;;;;;7.90;93.13;100102.88;10334632;28;20049;-73
2023/04/07 22:14:43;;;;;;;14.48;8.50;;;;;;;7.94;93.84;100103.38;10334681;28;20418;-72
2023/04/07 22:19:45;;;;;;;23.50;10.20;;;;;;;8.17;94.47;100108.97;10335532;28;20042;-72
2023/04/07 22:24:45;;;;;;;19.50;9.15;;;;;;;8.36;95.34;100114.00;10335285;28;20105;-72
2023/04/07 22:29:46;;;;;;;56.55;10.65;;;;;;;8.31;96.25;100046.66;10334343;28;20072;-73
2023/04/07 22:34:47;;;;;;;46.45;11.52;;;;;;;8.79;96.58;100103.41;10335052;28;20045;-72
2023/04/07 22:39:48;;;;;;;80.15;13.20;;;;;;;8.43;97.84;100034.81;10334081;28;20045;-72
2023/04/07 22:44:49;;;;;;;110.90;13.05;;;;;;;8.86;98.62;100067.34;10333990;28;20515;-72
2023/04/07 22:49:50;;;;;;;27.48;11.38;;;;;;;8.23;99.81;99944.25;10334367;28;20038;-72
2023/04/07 22:54:50;;;;;;;63.33;12.80;;;;;;;9.07;100.00;100056.28;10333283;28;20053;-73
2023/04/07 22:59:51;;;;;;;47.85;12.25;;;;;;;8.98;100.00;100046.66;10333476;28;20066;-72
2023/04/07 23:04:52;;;;;;;63.88;13.52;;;;;;;9.46;100.00;100098.84;10333250;28;20050;-72
2023/04/07 23:09:53;;;;;;;35.20;11.38;;;;;;;9.72;100.00;100117.22;10333666;28;20386;-72